AXCGGARGarmin  id=247  GPS 72 Software Version 2.50|2140330771
HFDTE050514
HFPLTPilot:UNREGISTERED
HFTZOTimezone:2
HFSITSite:
HPGTYGliderType:
HPGIDGliderID:
HFDTM100DATUM:WGS-1984
HFCIDCOMPETITIONID:
HFCCLCOMPETITIONCLASS:
LXCG     ICON:C:\Program Files\CompeGPS\symbols\IconsPlay\cronos.ico
LXCG     COLOR:000119000
I00
B1545103738292N00049540WA0000000000
B1545163738295N00049535WA0000000000
B1545223738286N00049527WA0000000000
B1545283738277N00049520WA0000000000
B1545343738279N00049513WA0000000000
B1545403738278N00049505WA0000000000
B1545463738270N00049499WA0000000000
B1545523738246N00049507WA0000000000
B1545583738222N00049515WA0000000000
B1546043738234N00049522WA0000000000
B1546103738233N00049545WA0000000000
B1546163738233N00049570WA0000000000
B1546223738227N00049590WA0000000000
B1546283738223N00049607WA0000000000
B1546343738216N00049623WA0000000000
B1546403738221N00049464WA0000000327
B1546463738199N00049468WA0000000326
B1546523738174N00049486WA0000000323
B1546583738164N00049488WA0000000325
B1547043738169N00049481WA0000000335
B1547103738182N00049470WA0000000336
B1547163738197N00049459WA0000000340
B1547223738215N00049448WA0000000342
B1547283738231N00049438WA0000000340
B1547343738252N00049430WA0000000337
B1547403738274N00049424WA0000000326
B1547463738293N00049419WA0000000319
B1547523738309N00049411WA0000000313
B1547583738324N00049400WA0000000309
B1548043738342N00049391WA0000000302
B1548103738356N00049380WA0000000296
B1548163738367N00049365WA0000000291
B1548223738377N00049350WA0000000296
B1548283738366N00049345WA0000000302
B1548343738354N00049392WA0000000308
B1548403738382N00049414WA0000000311
B1548463738387N00049401WA0000000315
B1548523738368N00049415WA0000000319
B1548583738369N00049468WA0000000322
B1549043738396N00049482WA0000000326
B1549103738407N00049467WA0000000328
B1549163738408N00049454WA0000000326
B1549223738415N00049442WA0000000314
B1549283738403N00049440WA0000000301
B1549343738384N00049445WA0000000287
B1549403738358N00049444WA0000000280
B1549463738335N00049438WA0000000276
B1549523738311N00049430WA0000000270
B1549583738293N00049417WA0000000271
B1550043738292N00049410WA0000000290
B1550103738300N00049399WA0000000298
B1550163738323N00049400WA0000000305
B1550223738343N00049399WA0000000304
B1550283738362N00049397WA0000000306
B1550343738377N00049393WA0000000304
B1550403738394N00049389WA0000000300
B1550463738413N00049383WA0000000292
B1550523738430N00049377WA0000000292
B1550583738442N00049372WA0000000294
B1551043738452N00049364WA0000000288
B1551103738465N00049356WA0000000294
B1551163738473N00049347WA0000000297
B1551223738479N00049334WA0000000292
B1551283738492N00049323WA0000000284
B1551343738488N00049313WA0000000277
B1551403738469N00049312WA0000000266
B1551463738445N00049319WA0000000256
B1551523738416N00049332WA0000000245
B1551583738387N00049348WA0000000242
B1552043738364N00049354WA0000000246
B1552103738355N00049345WA0000000244
B1552163738356N00049337WA0000000246
B1552223738350N00049326WA0000000247
B1552283738349N00049314WA0000000250
B1552343738349N00049305WA0000000253
B1552403738343N00049297WA0000000252
B1552463738322N00049301WA0000000250
B1552523738297N00049317WA0000000246
B1552583738269N00049340WA0000000242
B1553043738240N00049358WA0000000241
B1553103738224N00049352WA0000000249
B1553163738221N00049337WA0000000259
B1553223738214N00049320WA0000000263
B1553283738219N00049303WA0000000263
B1553343738209N00049288WA0000000262
B1553403738199N00049274WA0000000260
B1553463738199N00049258WA0000000257
B1553523738204N00049244WA0000000249
B1553583738230N00049253WA0000000239
B1554043738249N00049304WA0000000239
B1554103738269N00049366WA0000000239
B1554163738276N00049422WA0000000238
B1554223738252N00049460WA0000000237
B1554283738225N00049479WA0000000235
B1554343738209N00049475WA0000000237
B1554403738202N00049464WA0000000243
B1554463738198N00049452WA0000000241
B1554523738184N00049443WA0000000235
B1554583738159N00049447WA0000000231
B1555043738132N00049460WA0000000231
B1555103738116N00049454WA0000000232
B1555163738108N00049442WA0000000239
B1555223738109N00049427WA0000000249
B1555283738116N00049420WA0000000254
B1555343738129N00049412WA0000000256
B1555403738145N00049406WA0000000256
B1555463738162N00049403WA0000000254
B1555523738186N00049405WA0000000251
B1555583738217N00049424WA0000000249
B1556043738248N00049446WA0000000248
B1556103738266N00049448WA0000000247
B1556163738253N00049444WA0000000239
B1556223738230N00049445WA0000000234
B1556283738216N00049436WA0000000232
B1556343738223N00049427WA0000000228
B1556403738249N00049452WA0000000223
B1556463738268N00049504WA0000000220
B1556523738276N00049503WA0000000215
B1556583738261N00049499WA0000000210
B1557043738242N00049498WA0000000212
B1557103738229N00049492WA0000000214
B1557163738217N00049489WA0000000213
B1557223738199N00049489WA0000000213
B1557283738180N00049486WA0000000212
B1557343738163N00049481WA0000000213
B1557403738149N00049474WA0000000211
B1557463738134N00049465WA0000000213
B1557523738116N00049455WA0000000217
B1557583738100N00049445WA0000000215
B1558043738085N00049434WA0000000213
B1558103738068N00049426WA0000000214
B1558163738047N00049421WA0000000214
B1558223738028N00049421WA0000000212
B1558283738016N00049411WA0000000211
B1558343738004N00049399WA0000000212
B1558403737991N00049393WA0000000208
B1558463737985N00049379WA0000000206
B1558523737984N00049369WA0000000203
B1558583737998N00049368WA0000000204
B1559043738023N00049389WA0000000201
B1559103738049N00049414WA0000000190
B1559163738077N00049438WA0000000184
B1559223738103N00049470WA0000000182
B1559283738129N00049495WA0000000183
B1559343738144N00049491WA0000000193
B1559403738161N00049489WA0000000197
B1559463738183N00049497WA0000000200
B1559523738212N00049514WA0000000203
B1559583738233N00049515WA0000000208
B1600043738251N00049510WA0000000213
B1600103738265N00049504WA0000000222
B1600163738275N00049500WA0000000235
B1600223738280N00049494WA0000000245
B1600283738277N00049488WA0000000245
B1600343738261N00049488WA0000000252
B1600403738258N00049483WA0000000260
B1600463738267N00049478WA0000000272
B1600523738275N00049475WA0000000283
B1600583738277N00049464WA0000000292
B1601043738277N00049452WA0000000295
B1601103738277N00049439WA0000000310
B1601163738268N00049430WA0000000322
B1601223738262N00049423WA0000000323
B1601283738269N00049414WA0000000319
B1601343738278N00049405WA0000000315
B1601403738296N00049396WA0000000316
B1601463738299N00049380WA0000000326
B1601523738299N00049374WA0000000327
B1601583738305N00049367WA0000000332
B1602043738307N00049356WA0000000334
B1602103738306N00049351WA0000000342
B1602163738311N00049346WA0000000351
B1602223738319N00049341WA0000000355
B1602283738326N00049337WA0000000351
B1602343738333N00049328WA0000000346
B1602403738347N00049322WA0000000341
B1602463738358N00049313WA0000000332
B1602523738378N00049304WA0000000324
B1602583738395N00049299WA0000000318
B1603043738409N00049288WA0000000315
B1603103738424N00049282WA0000000312
B1603163738438N00049270WA0000000306
B1603223738439N00049256WA0000000304
B1603283738431N00049248WA0000000299
B1603343738424N00049230WA0000000293
B1603403738429N00049214WA0000000280
B1603463738422N00049202WA0000000269
B1603523738399N00049201WA0000000260
B1603583738373N00049202WA0000000249
B1604043738343N00049215WA0000000238
B1604103738315N00049235WA0000000224
B1604163738287N00049257WA0000000214
B1604223738260N00049293WA0000000209
B1604283738238N00049339WA0000000203
B1604343738220N00049389WA0000000190
B1604403738196N00049435WA0000000181
B1604463738168N00049474WA0000000177
B1604523738139N00049486WA0000000181
B1604583738135N00049480WA0000000193
B1605043738144N00049475WA0000000204
B1605103738156N00049468WA0000000211
B1605163738177N00049471WA0000000209
B1605223738204N00049487WA0000000204
B1605283738232N00049504WA0000000206
B1605343738243N00049495WA0000000209
B1605403738247N00049481WA0000000213
B1605463738254N00049468WA0000000211
B1605523738282N00049471WA0000000204
B1605583738297N00049464WA0000000205
B1606043738274N00049476WA0000000208
B1606103738251N00049492WA0000000206
B1606163738232N00049494WA0000000202
B1606223738212N00049493WA0000000202
B1606283738193N00049488WA0000000201
B1606343738182N00049478WA0000000203
B1606403738164N00049476WA0000000204
B1606463738138N00049492WA0000000202
B1606523738110N00049507WA0000000200
B1606583738104N00049497WA0000000203
B1607043738116N00049495WA0000000203
B1607103738144N00049520WA0000000201
B1607163738174N00049532WA0000000206
B1607223738204N00049543WA0000000209
B1607283738231N00049546WA0000000217
B1607343738243N00049543WA0000000229
B1607403738242N00049536WA0000000233
B1607463738246N00049526WA0000000234
B1607523738256N00049521WA0000000241
B1607583738261N00049514WA0000000249
B1608043738266N00049502WA0000000257
B1608103738274N00049495WA0000000261
B1608163738283N00049487WA0000000252
B1608223738297N00049481WA0000000256
B1608283738304N00049473WA0000000254
B1608343738309N00049461WA0000000251
B1608403738312N00049448WA0000000242
B1608463738322N00049434WA0000000234
B1608523738333N00049421WA0000000228
B1608583738346N00049409WA0000000223
B1609043738349N00049395WA0000000221
B1609103738356N00049384WA0000000217
B1609163738347N00049378WA0000000210
B1609223738320N00049388WA0000000203
B1609283738296N00049399WA0000000195
B1609343738271N00049407WA0000000190
B1609403738248N00049413WA0000000185
B1609463738223N00049426WA0000000184
B1609523738200N00049438WA0000000181
B1609583738175N00049449WA0000000180
B1610043738150N00049464WA0000000180
B1610103738123N00049485WA0000000181
B1610163738109N00049477WA0000000189
B1610223738104N00049463WA0000000192
B1610283738095N00049454WA0000000188
B1610343738119N00049469WA0000000184
B1610403738147N00049491WA0000000182
B1610463738177N00049512WA0000000183
B1610523738206N00049520WA0000000186
B1610583738211N00049512WA0000000188
B1611043738193N00049510WA0000000187
B1611103738178N00049501WA0000000189
B1611163738158N00049498WA0000000193
B1611223738142N00049496WA0000000196
B1611283738126N00049491WA0000000197
B1611343738104N00049499WA0000000196
B1611403738105N00049493WA0000000192
B1611463738135N00049508WA0000000191
B1611523738147N00049495WA0000000200
B1611583738153N00049483WA0000000205
B1612043738144N00049474WA0000000197
B1612103738117N00049498WA0000000195
B1612163738095N00049507WA0000000194
B1612223738107N00049502WA0000000197
B1612283738125N00049500WA0000000200
B1612343738139N00049497WA0000000197
B1612403738139N00049486WA0000000200
B1612463738134N00049472WA0000000207
B1612523738134N00049460WA0000000212
B1612583738129N00049450WA0000000214
B1613043738122N00049443WA0000000217
B1613103738114N00049433WA0000000218
B1613163738104N00049424WA0000000214
B1613223738093N00049415WA0000000210
B1613283738082N00049406WA0000000206
B1613343738064N00049402WA0000000201
B1613403738037N00049409WA0000000197
B1613463738007N00049416WA0000000197
B1613523737988N00049408WA0000000197
B1613583737985N00049397WA0000000198
B1614043737982N00049386WA0000000199
B1614103737979N00049378WA0000000201
B1614163737975N00049368WA0000000199
B1614223737967N00049359WA0000000194
B1614283737979N00049358WA0000000188
B1614343738001N00049381WA0000000189
B1614403738012N00049375WA0000000194
B1614463738017N00049364WA0000000201
B1614523738020N00049353WA0000000200
B1614583737994N00049374WA0000000192
B1615043737997N00049429WA0000000194
B1615103738018N00049447WA0000000194
B1615163738039N00049452WA0000000193
B1615223738059N00049457WA0000000189
B1615283738071N00049455WA0000000188
B1615343738056N00049446WA0000000191
B1615403738043N00049438WA0000000194
B1615463738052N00049432WA0000000200
B1615523738067N00049427WA0000000198
B1615583738060N00049420WA0000000193
B1616043738031N00049437WA0000000191
B1616103738004N00049447WA0000000193
B1616163737997N00049438WA0000000193
B1616223738019N00049450WA0000000197
B1616283738039N00049464WA0000000202
B1616343738045N00049459WA0000000209
B1616403738055N00049454WA0000000206
B1616463738082N00049483WA0000000207
B1616523738107N00049518WA0000000211
B1616583738129N00049533WA0000000216
B1617043738123N00049526WA0000000222
B1617103738111N00049522WA0000000222
B1617163738132N00049529WA0000000222
B1617223738133N00049523WA0000000224
B1617283738106N00049546WA0000000226
B1617343738087N00049547WA0000000231
B1617403738092N00049540WA0000000234
B1617463738115N00049556WA0000000237
B1617523738131N00049562WA0000000239
B1617583738125N00049557WA0000000241
B1618043738096N00049573WA0000000242
B1618103738079N00049575WA0000000245
B1618163738094N00049578WA0000000247
B1618223738109N00049576WA0000000255
B1618283738116N00049570WA0000000260
B1618343738124N00049564WA0000000264
B1618403738132N00049557WA0000000270
B1618463738140N00049551WA0000000273
B1618523738152N00049544WA0000000272
B1618583738180N00049554WA0000000273
B1619043738198N00049553WA0000000273
B1619103738178N00049555WA0000000272
B1619163738163N00049553WA0000000275
B1619223738160N00049539WA0000000278
B1619283738161N00049526WA0000000277
B1619343738165N00049517WA0000000279
B1619403738170N00049509WA0000000285
B1619463738154N00049516WA0000000287
B1619523738131N00049546WA0000000288
B1619583738124N00049542WA0000000289
B1620043738134N00049534WA0000000289
B1620103738139N00049523WA0000000289
B1620163738144N00049514WA0000000289
B1620223738146N00049511WA0000000305
B1620283738144N00049506WA0000000310
B1620343738143N00049501WA0000000312
B1620403738146N00049495WA0000000317
B1620463738152N00049489WA0000000321
B1620523738163N00049484WA0000000360
B1620583738176N00049479WA0000000365
B1621043738189N00049466WA0000000362
B1621103738202N00049454WA0000000362
B1621163738213N00049442WA0000000368
B1621223738225N00049430WA0000000374
B1621283738233N00049416WA0000000376
B1621343738223N00049410WA0000000379
B1621403738196N00049436WA0000000381
B1621463738193N00049489WA0000000379
B1621523738220N00049509WA0000000373
B1621583738236N00049500WA0000000375
B1622043738248N00049492WA0000000377
B1622103738258N00049481WA0000000377
B1622163738264N00049465WA0000000379
B1622223738270N00049451WA0000000379
B1622283738276N00049439WA0000000378
B1622343738277N00049425WA0000000378
B1622403738277N00049412WA0000000379
B1622463738281N00049398WA0000000377
B1622523738280N00049387WA0000000378
B1622583738279N00049372WA0000000373
B1623043738283N00049355WA0000000366
B1623103738285N00049335WA0000000365
B1623163738285N00049315WA0000000365
B1623223738287N00049297WA0000000364
B1623283738292N00049291WA0000000364
B1623343738277N00049300WA0000000365
B1623403738272N00049355WA0000000371
B1623463738292N00049401WA0000000379
B1623523738317N00049407WA0000000383
B1623583738319N00049401WA0000000388
B1624043738316N00049390WA0000000390
B1624103738315N00049374WA0000000389
B1624163738319N00049358WA0000000389
B1624223738321N00049338WA0000000378
B1624283738318N00049315WA0000000371
B1624343738315N00049296WA0000000367
B1624403738318N00049279WA0000000363
B1624463738318N00049262WA0000000359
B1624523738320N00049239WA0000000354
B1624583738316N00049216WA0000000338
B1625043738311N00049193WA0000000317
B1625103738312N00049176WA0000000305
B1625163738312N00049161WA0000000299
B1625223738293N00049163WA0000000251
B1625283738266N00049191WA0000000241
B1625343738242N00049233WA0000000234
B1625403738223N00049288WA0000000224
B1625463738199N00049339WA0000000220
B1625523738170N00049379WA0000000218
B1625583738136N00049409WA0000000228
B1626043738103N00049426WA0000000230
B1626103738072N00049429WA0000000238
B1626163738052N00049421WA0000000249
B1626223738039N00049416WA0000000251
B1626283738026N00049411WA0000000251
B1626343738032N00049406WA0000000254
B1626403738036N00049400WA0000000253
B1626463738032N00049388WA0000000255
B1626523738026N00049381WA0000000257
B1626583738034N00049375WA0000000255
B1627043738039N00049366WA0000000258
B1627103738015N00049373WA0000000263
B1627163738012N00049434WA0000000264
B1627223738034N00049448WA0000000267
B1627283738048N00049447WA0000000274
B1627343738061N00049451WA0000000279
B1627403738061N00049445WA0000000278
B1627463738059N00049436WA0000000280
B1627523738056N00049424WA0000000282
B1627583738051N00049417WA0000000285
B1628043738046N00049409WA0000000285
B1628103738040N00049396WA0000000285
B1628163738038N00049388WA0000000284
B1628223738041N00049377WA0000000289
B1628283738048N00049370WA0000000299
B1628343738062N00049368WA0000000306
B1628403738065N00049358WA0000000312
B1628463738063N00049351WA0000000316
B1628523738069N00049341WA0000000325
B1628583738073N00049335WA0000000331
B1629043738082N00049328WA0000000330
B1629103738079N00049314WA0000000330
B1629163738079N00049297WA0000000330
B1629223738080N00049284WA0000000330
B1629283738080N00049263WA0000000330
B1629343738076N00049245WA0000000330
B1629403738071N00049229WA0000000330
B1629463738066N00049212WA0000000327
B1629523738060N00049192WA0000000322
B1629583738053N00049167WA0000000312
B1630043738043N00049144WA0000000307
B1630103738043N00049132WA0000000304
B1630163738043N00049119WA0000000301
B1630223738037N00049106WA0000000301
B1630283738028N00049094WA0000000300
B1630343738010N00049092WA0000000293
B1630403737984N00049120WA0000000239
B1630463737971N00049193WA0000000224
B1630523737960N00049254WA0000000217
B1630583737961N00049316WA0000000214
B1631043737975N00049369WA0000000210
B1631103737993N00049419WA0000000209
B1631163738015N00049459WA0000000211
B1631223738039N00049481WA0000000219
B1631283738058N00049486WA0000000219
B1631343738081N00049492WA0000000222
B1631403738104N00049501WA0000000220
B1631463738130N00049526WA0000000223
B1631523738124N00049517WA0000000224
B1631583738114N00049508WA0000000225
B1632043738098N00049500WA0000000226
B1632103738086N00049491WA0000000227
B1632163738070N00049482WA0000000226
B1632223738053N00049474WA0000000225
B1632283738056N00049464WA0000000227
B1632343738050N00049449WA0000000225
B1632403738052N00049438WA0000000230
B1632463738047N00049425WA0000000235
B1632523738042N00049413WA0000000235
B1632583738034N00049401WA0000000234
B1633043738019N00049390WA0000000230
B1633103738005N00049378WA0000000230
B1633163737998N00049370WA0000000232
B1633223737991N00049360WA0000000232
B1633283737985N00049352WA0000000234
B1633343737978N00049337WA0000000234
B1633403737979N00049326WA0000000239
B1633463737986N00049322WA0000000247
B1633523737986N00049314WA0000000243
B1633583737988N00049302WA0000000243
B1634043737988N00049292WA0000000246
B1634103737996N00049282WA0000000246
B1634163738004N00049273WA0000000236
B1634223738006N00049261WA0000000229
B1634283738021N00049262WA0000000216
B1634343738008N00049318WA0000000210
B1634403737991N00049370WA0000000205
B1634463737999N00049426WA0000000204
B1634523738024N00049460WA0000000201
B1634583738047N00049480WA0000000199
B1635043738073N00049494WA0000000202
B1635103738099N00049504WA0000000206
B1635163738124N00049533WA0000000207
B1635223738132N00049526WA0000000209
B1635283738138N00049518WA0000000217
B1635343738114N00049525WA0000000219
B1635403738098N00049526WA0000000218
B1635463738123N00049536WA0000000223
B1635523738120N00049526WA0000000226
B1635583738105N00049514WA0000000228
B1636043738092N00049505WA0000000230
B1636103738084N00049493WA0000000231
B1636163738069N00049484WA0000000229
B1636223738047N00049477WA0000000226
B1636283738028N00049474WA0000000227
B1636343738020N00049459WA0000000235
B1636403738026N00049449WA0000000243
B1636463738029N00049440WA0000000237
B1636523738013N00049430WA0000000231
B1636583737999N00049417WA0000000228
B1637043737992N00049401WA0000000225
B1637103737988N00049386WA0000000222
B1637163737988N00049373WA0000000218
B1637223737983N00049359WA0000000216
B1637283737964N00049351WA0000000214
B1637343737959N00049336WA0000000214
B1637403737964N00049332WA0000000218
B1637463737967N00049323WA0000000214
B1637523737969N00049309WA0000000213
B1637583737980N00049299WA0000000208
B1638043737991N00049291WA0000000203
B1638103738013N00049309WA0000000199
B1638163738031N00049363WA0000000196
B1638223738048N00049416WA0000000200
B1638283738070N00049440WA0000000200
B1638343738060N00049438WA0000000205
B1638403738039N00049477WA0000000208
B1638463738056N00049515WA0000000215
B1638523738063N00049510WA0000000220
B1638583738074N00049504WA0000000229
B1639043738090N00049505WA0000000240
B1639103738101N00049503WA0000000254
B1639163738113N00049497WA0000000264
B1639223738123N00049490WA0000000284
B1639283738125N00049482WA0000000298
B1639343738132N00049477WA0000000302
B1639403738140N00049472WA0000000304
B1639463738125N00049477WA0000000301
B1639523738107N00049526WA0000000299
B1639583738128N00049558WA0000000299
B1640043738132N00049554WA0000000301
B1640103738138N00049544WA0000000298
B1640163738147N00049536WA0000000296
B1640223738155N00049526WA0000000293
B1640283738164N00049516WA0000000287
B1640343738167N00049502WA0000000280
B1640403738170N00049487WA0000000277
B1640463738176N00049472WA0000000278
B1640523738185N00049463WA0000000285
B1640583738199N00049457WA0000000296
B1641043738189N00049456WA0000000299
B1641103738163N00049478WA0000000306
B1641163738164N00049537WA0000000311
B1641223738186N00049557WA0000000315
B1641283738194N00049547WA0000000322
B1641343738199N00049541WA0000000331
B1641403738207N00049531WA0000000333
B1641463738219N00049517WA0000000328
B1641523738231N00049504WA0000000325
B1641583738239N00049493WA0000000326
B1642043738242N00049485WA0000000323
B1642103738251N00049477WA0000000313
B1642163738259N00049469WA0000000307
B1642223738266N00049452WA0000000300
B1642283738274N00049438WA0000000292
B1642343738284N00049425WA0000000287
B1642403738286N00049413WA0000000287
B1642463738262N00049426WA0000000282
B1642523738257N00049479WA0000000277
B1642583738279N00049496WA0000000273
B1643043738289N00049488WA0000000271
B1643103738295N00049474WA0000000268
B1643163738298N00049455WA0000000268
B1643223738301N00049440WA0000000264
B1643283738302N00049424WA0000000263
B1643343738305N00049409WA0000000256
B1643403738308N00049393WA0000000252
B1643463738312N00049376WA0000000245
B1643523738317N00049358WA0000000239
B1643583738313N00049343WA0000000235
B1644043738289N00049351WA0000000223
B1644103738257N00049374WA0000000214
B1644163738225N00049402WA0000000210
B1644223738195N00049434WA0000000209
B1644283738166N00049463WA0000000207
B1644343738131N00049481WA0000000204
B1644403738093N00049501WA0000000208
B1644463738063N00049502WA0000000209
B1644523738058N00049489WA0000000215
B1644583738060N00049484WA0000000221
B1645043738065N00049479WA0000000227
B1645103738070N00049476WA0000000230
B1645163738072N00049468WA0000000234
B1645223738078N00049457WA0000000239
B1645283738092N00049451WA0000000249
B1645343738106N00049443WA0000000255
B1645403738120N00049437WA0000000255
B1645463738102N00049439WA0000000253
B1645523738087N00049494WA0000000256
B1645583738111N00049529WA0000000261
B1646043738121N00049527WA0000000259
B1646103738129N00049520WA0000000259
B1646163738145N00049515WA0000000258
B1646223738155N00049507WA0000000259
B1646283738169N00049500WA0000000259
B1646343738189N00049497WA0000000261
B1646403738198N00049490WA0000000261
B1646463738174N00049505WA0000000257
B1646523738171N00049556WA0000000258
B1646583738185N00049563WA0000000259
B1647043738185N00049556WA0000000259
B1647103738187N00049548WA0000000260
B1647163738192N00049542WA0000000259
B1647223738197N00049531WA0000000258
B1647283738207N00049520WA0000000260
B1647343738222N00049509WA0000000256
B1647403738239N00049502WA0000000251
B1647463738255N00049497WA0000000250
B1647523738250N00049491WA0000000254
B1647583738226N00049533WA0000000253
B1648043738248N00049569WA0000000257
B1648103738254N00049561WA0000000262
B1648163738252N00049555WA0000000274
B1648223738250N00049549WA0000000279
B1648283738249N00049541WA0000000285
B1648343738252N00049533WA0000000285
B1648403738258N00049525WA0000000283
B1648463738261N00049516WA0000000277
B1648523738268N00049507WA0000000268
B1648583738278N00049494WA0000000259
B1649043738292N00049487WA0000000251
B1649103738300N00049480WA0000000242
B1649163738309N00049473WA0000000232
B1649223738314N00049462WA0000000228
B1649283738316N00049452WA0000000227
B1649343738320N00049438WA0000000225
B1649403738332N00049427WA0000000222
B1649463738348N00049414WA0000000223
B1649523738357N00049401WA0000000231
B1649583738340N00049402WA0000000234
B1650043738328N00049454WA0000000241
B1650103738349N00049476WA0000000244
B1650163738358N00049469WA0000000247
B1650223738364N00049459WA0000000246
B1650283738365N00049450WA0000000235
B1650343738347N00049446WA0000000231
B1650403738327N00049442WA0000000230
B1650463738319N00049439WA0000000232
B1650523738324N00049430WA0000000239
B1650583738314N00049430WA0000000241
B1651043738293N00049471WA0000000248
B1651103738307N00049518WA0000000253
B1651163738318N00049517WA0000000255
B1651223738322N00049511WA0000000256
B1651283738328N00049505WA0000000259
B1651343738335N00049501WA0000000254
B1651403738337N00049493WA0000000247
B1651463738323N00049481WA0000000241
B1651523738302N00049472WA0000000239
B1651583738280N00049468WA0000000236
B1652043738262N00049466WA0000000232
B1652103738243N00049461WA0000000233
B1652163738225N00049452WA0000000234
B1652223738212N00049444WA0000000240
B1652283738212N00049430WA0000000245
B1652343738205N00049418WA0000000245
B1652403738197N00049410WA0000000240
B1652463738176N00049410WA0000000235
B1652523738145N00049428WA0000000234
B1652583738113N00049460WA0000000236
B1653043738079N00049487WA0000000246
B1653103738067N00049480WA0000000250
B1653163738076N00049479WA0000000253
B1653223738098N00049492WA0000000255
B1653283738103N00049489WA0000000255
B1653343738074N00049490WA0000000258
B1653403738067N00049480WA0000000261
B1653463738073N00049473WA0000000267
B1653523738083N00049468WA0000000269
B1653583738089N00049460WA0000000271
B1654043738098N00049453WA0000000270
B1654103738078N00049457WA0000000274
B1654163738053N00049472WA0000000276
B1654223738036N00049463WA0000000280
B1654283738032N00049451WA0000000285
B1654343738025N00049433WA0000000297
B1654403738024N00049423WA0000000306
B1654463738022N00049412WA0000000320
B1654523738024N00049402WA0000000320
B1654583738019N00049391WA0000000320
B1655043738016N00049385WA0000000316
B1655103738017N00049376WA0000000313
B1655163738019N00049366WA0000000310
B1655223738022N00049355WA0000000304
B1655283738020N00049340WA0000000296
B1655343738014N00049322WA0000000299
B1655403738020N00049310WA0000000294
B1655463738015N00049298WA0000000298
B1655523738014N00049290WA0000000295
B1655583738014N00049275WA0000000291
B1656043738014N00049261WA0000000291
B1656103738015N00049249WA0000000289
B1656163738014N00049239WA0000000289
B1656223738015N00049223WA0000000290
B1656283738016N00049214WA0000000296
B1656343738021N00049208WA0000000298
B1656403738021N00049200WA0000000300
B1656463738024N00049191WA0000000307
B1656523738029N00049181WA0000000311
B1656583738031N00049171WA0000000312
B1657043738035N00049163WA0000000310
B1657103738032N00049151WA0000000306
B1657163738034N00049138WA0000000300
B1657223738032N00049122WA0000000297
B1657283738030N00049107WA0000000290
B1657343738028N00049092WA0000000280
B1657403738028N00049080WA0000000276
B1657463738026N00049065WA0000000271
B1657523738031N00049050WA0000000267
B1657583738037N00049036WA0000000268
B1658043738040N00049028WA0000000269
B1658103738043N00049017WA0000000263
B1658163738051N00049006WA0000000256
B1658223738059N00048996WA0000000249
B1658283738069N00048988WA0000000239
B1658343738090N00048986WA0000000227
B1658403738116N00049018WA0000000219
B1658463738124N00049078WA0000000209
B1658523738106N00049138WA0000000200
B1658583738084N00049195WA0000000194
B1659043738056N00049244WA0000000189
B1659103738026N00049289WA0000000183
B1659163738002N00049340WA0000000185
B1659223737972N00049363WA0000000186
B1659283737970N00049351WA0000000187
B1659343737971N00049339WA0000000194
B1659403737981N00049338WA0000000189
B1659463738002N00049378WA0000000188
B1659523738019N00049430WA0000000190
B1659583738038N00049447WA0000000196
B1700043738023N00049445WA0000000202
B1700103737999N00049450WA0000000205
B1700163738015N00049462WA0000000208
B1700223738034N00049477WA0000000214
B1700283738019N00049474WA0000000214
B1700343737993N00049474WA0000000220
B1700403737983N00049470WA0000000227
B1700463737986N00049463WA0000000228
B1700523738000N00049463WA0000000226
B1700583738025N00049475WA0000000226
B1701043738049N00049483WA0000000225
B1701103738075N00049494WA0000000225
B1701163738101N00049508WA0000000225
B1701223738126N00049527WA0000000226
B1701283738152N00049539WA0000000227
B1701343738174N00049546WA0000000233
B1701403738192N00049545WA0000000239
B1701463738206N00049540WA0000000238
B1701523738222N00049533WA0000000236
B1701583738236N00049526WA0000000234
B1702043738249N00049517WA0000000232
B1702103738263N00049508WA0000000231
B1702163738277N00049499WA0000000227
B1702223738292N00049489WA0000000223
B1702283738307N00049478WA0000000220
B1702343738321N00049465WA0000000219
B1702403738330N00049453WA0000000225
B1702463738338N00049441WA0000000230
B1702523738342N00049430WA0000000237
B1702583738322N00049454WA0000000242
B1703043738302N00049472WA0000000239
B1703103738311N00049461WA0000000239
B1703163738324N00049452WA0000000246
B1703223738337N00049446WA0000000251
B1703283738327N00049441WA0000000255
B1703343738308N00049487WA0000000260
B1703403738328N00049507WA0000000264
B1703463738330N00049497WA0000000269
B1703523738333N00049485WA0000000278
B1703583738344N00049478WA0000000288
B1704043738348N00049473WA0000000302
B1704103738350N00049466WA0000000314
B1704163738357N00049458WA0000000329
B1704223738357N00049448WA0000000343
B1704283738358N00049441WA0000000351
B1704343738363N00049431WA0000000344
B1704403738371N00049420WA0000000336
B1704463738380N00049407WA0000000328
B1704523738385N00049388WA0000000319
B1704583738393N00049366WA0000000308
B1705043738406N00049345WA0000000298
B1705103738417N00049332WA0000000301
B1705163738416N00049319WA0000000292
B1705223738390N00049332WA0000000276
B1705283738378N00049381WA0000000265
B1705343738404N00049399WA0000000261
B1705403738423N00049391WA0000000262
B1705463738442N00049379WA0000000264
B1705523738460N00049363WA0000000264
B1705583738476N00049353WA0000000273
B1706043738475N00049346WA0000000276
B1706103738457N00049385WA0000000274
B1706163738467N00049435WA0000000282
B1706223738496N00049443WA0000000286
B1706283738506N00049434WA0000000289
B1706343738505N00049423WA0000000289
B1706403738511N00049415WA0000000294
B1706463738523N00049410WA0000000298
B1706523738528N00049403WA0000000298
B1706583738532N00049393WA0000000297
B1707043738538N00049386WA0000000290
B1707103738542N00049375WA0000000279
B1707163738547N00049357WA0000000268
B1707223738548N00049347WA0000000261
B1707283738535N00049341WA0000000250
B1707343738511N00049344WA0000000242
B1707403738486N00049351WA0000000231
B1707463738456N00049361WA0000000220
B1707523738426N00049372WA0000000209
B1707583738395N00049387WA0000000202
B1708043738368N00049393WA0000000199
B1708103738337N00049411WA0000000199
B1708163738304N00049442WA0000000196
B1708223738275N00049485WA0000000206
B1708283738246N00049498WA0000000219
B1708343738239N00049491WA0000000225
B1708403738255N00049488WA0000000227
B1708463738278N00049490WA0000000233
B1708523738294N00049486WA0000000236
B1708583738314N00049487WA0000000239
B1709043738329N00049481WA0000000237
B1709103738341N00049471WA0000000230
B1709163738345N00049460WA0000000223
B1709223738318N00049476WA0000000215
B1709283738287N00049495WA0000000206
B1709343738258N00049512WA0000000212
B1709403738231N00049526WA0000000215
B1709463738202N00049540WA0000000224
B1709523738186N00049530WA0000000231
B1709583738188N00049523WA0000000244
B1710043738195N00049519WA0000000249
B1710103738213N00049519WA0000000247
B1710163738240N00049530WA0000000244
B1710223738254N00049526WA0000000241
B1710283738233N00049525WA0000000240
B1710343738210N00049525WA0000000239
B1710403738190N00049521WA0000000238
B1710463738173N00049509WA0000000239
B1710523738166N00049497WA0000000237
B1710583738147N00049500WA0000000234
B1711043738116N00049518WA0000000233
B1711103738093N00049521WA0000000231
B1711163738087N00049510WA0000000228
B1711223738082N00049496WA0000000228
B1711283738079N00049480WA0000000229
B1711343738081N00049466WA0000000232
B1711403738093N00049458WA0000000230
B1711463738099N00049447WA0000000229
B1711523738105N00049433WA0000000227
B1711583738113N00049424WA0000000228
B1712043738125N00049414WA0000000229
B1712103738138N00049406WA0000000234
B1712163738146N00049397WA0000000239
B1712223738124N00049400WA0000000240
B1712283738108N00049449WA0000000243
B1712343738129N00049488WA0000000244
B1712403738141N00049482WA0000000250
B1712463738133N00049471WA0000000256
B1712523738136N00049461WA0000000262
B1712583738147N00049454WA0000000264
B1713043738157N00049446WA0000000266
B1713103738146N00049437WA0000000262
B1713163738127N00049483WA0000000263
B1713223738148N00049511WA0000000263
B1713283738158N00049508WA0000000262
B1713343738172N00049502WA0000000257
B1713403738190N00049496WA0000000254
B1713463738211N00049491WA0000000250
B1713523738231N00049484WA0000000250
B1713583738252N00049475WA0000000250
B1714043738275N00049472WA0000000250
B1714103738299N00049476WA0000000241
B1714163738313N00049473WA0000000231
B1714223738312N00049456WA0000000230
B1714283738306N00049441WA0000000231
B1714343738307N00049431WA0000000239
B1714403738309N00049418WA0000000236
B1714463738317N00049406WA0000000227
B1714523738326N00049392WA0000000220
B1714583738329N00049381WA0000000221
B1715043738336N00049372WA0000000221
B1715103738343N00049360WA0000000218
B1715163738341N00049351WA0000000220
B1715223738320N00049389WA0000000219
B1715283738338N00049436WA0000000219
B1715343738345N00049434WA0000000220
B1715403738322N00049464WA0000000219
B1715463738293N00049509WA0000000221
B1715523738264N00049518WA0000000220
B1715583738242N00049520WA0000000225
B1716043738229N00049516WA0000000230
B1716103738230N00049507WA0000000241
B1716163738239N00049502WA0000000247
B1716223738244N00049496WA0000000253
B1716283738248N00049488WA0000000257
B1716343738239N00049482WA0000000256
B1716403738220N00049530WA0000000256
B1716463738245N00049567WA0000000264
B1716523738248N00049564WA0000000258
B1716583738248N00049556WA0000000257
B1717043738238N00049551WA0000000250
B1717103738220N00049548WA0000000252
B1717163738201N00049548WA0000000253
B1717223738183N00049546WA0000000258
B1717283738186N00049538WA0000000266
B1717343738201N00049533WA0000000268
B1717403738188N00049529WA0000000269
B1717463738179N00049518WA0000000270
B1717523738178N00049503WA0000000272
B1717583738188N00049491WA0000000272
B1718043738201N00049478WA0000000271
B1718103738207N00049466WA0000000269
B1718163738188N00049453WA0000000269
B1718223738158N00049443WA0000000261
B1718283738125N00049437WA0000000252
B1718343738089N00049434WA0000000242
B1718403738053N00049432WA0000000238
B1718463738029N00049425WA0000000237
B1718523738017N00049411WA0000000236
B1718583738011N00049396WA0000000236
B1719043738000N00049379WA0000000237
B1719103737991N00049365WA0000000238
B1719163737986N00049352WA0000000240
B1719223737989N00049340WA0000000239
B1719283737991N00049327WA0000000236
B1719343737988N00049312WA0000000234
B1719403737988N00049296WA0000000232
B1719463737991N00049280WA0000000228
B1719523737990N00049266WA0000000223
B1719583737991N00049253WA0000000218
B1720043738006N00049261WA0000000204
B1720103738007N00049324WA0000000200
B1720163738007N00049387WA0000000196
B1720223738009N00049448WA0000000195
B1720283738025N00049484WA0000000200
B1720343738011N00049482WA0000000205
B1720403737989N00049483WA0000000209
B1720463738005N00049496WA0000000213
B1720523738021N00049511WA0000000214
B1720583738016N00049502WA0000000219
B1721043738014N00049491WA0000000223
B1721103738010N00049480WA0000000226
B1721163738006N00049467WA0000000226
B1721223737998N00049454WA0000000224
B1721283737995N00049439WA0000000223
B1721343737996N00049423WA0000000221
B1721403737994N00049408WA0000000220
B1721463737982N00049393WA0000000220
B1721523737969N00049381WA0000000218
B1721583737957N00049369WA0000000213
B1722043737948N00049355WA0000000209
B1722103737940N00049339WA0000000203
B1722163737935N00049327WA0000000205
B1722223737938N00049315WA0000000202
B1722283737939N00049306WA0000000195
B1722343737939N00049295WA0000000188
B1722403737961N00049324WA0000000177
B1722463737982N00049360WA0000000174
B1722523737999N00049374WA0000000176
B1722583737984N00049362WA0000000177
B1723043737966N00049350WA0000000171
B1723103737985N00049367WA0000000166
B1723163738000N00049370WA0000000163
B1723223737974N00049364WA0000000165
B1723283737977N00049359WA0000000164
B1723343737993N00049378WA0000000165
B1723403737969N00049369WA0000000166
B1723463737971N00049363WA0000000167
B1723523737986N00049366WA0000000165
B1723583738003N00049375WA0000000168
B1724043737999N00049368WA0000000171
B1724103737973N00049366WA0000000178
B1724163737984N00049364WA0000000184
B1724223738001N00049375WA0000000189
B1724283737987N00049370WA0000000192
B1724343737983N00049364WA0000000189
B1724403737996N00049360WA0000000187
B1724463737979N00049354WA0000000189
B1724523737995N00049360WA0000000181
B1724583738004N00049417WA0000000176
B1725043738023N00049463WA0000000179
B1725103738045N00049502WA0000000184
B1725163738064N00049537WA0000000190
B1725223738060N00049526WA0000000196
B1725283738049N00049516WA0000000201
B1725343738042N00049504WA0000000204
B1725403738036N00049493WA0000000207
B1725463738017N00049486WA0000000209
B1725523737995N00049487WA0000000213
B1725583738015N00049510WA0000000215
B1726043738034N00049539WA0000000217
B1726103738036N00049529WA0000000222
B1726163738039N00049519WA0000000227
B1726223738035N00049509WA0000000229
B1726283738018N00049503WA0000000234
B1726343738023N00049490WA0000000238
B1726403738033N00049483WA0000000240
B1726463738014N00049482WA0000000242
B1726523737992N00049478WA0000000246
B1726583737993N00049464WA0000000254
B1727043737999N00049455WA0000000258
B1727103737993N00049446WA0000000255
B1727163737981N00049434WA0000000249
B1727223737978N00049420WA0000000241
B1727283737984N00049406WA0000000240
B1727343737990N00049394WA0000000236
B1727403737987N00049379WA0000000232
B1727463737997N00049363WA0000000229
B1727523738006N00049350WA0000000237
B1727583738006N00049335WA0000000237
B1728043738017N00049335WA0000000233
B1728103738023N00049386WA0000000242
B1728163737999N00049403WA0000000247
B1728223738009N00049399WA0000000249
B1728283738017N00049386WA0000000252
B1728343738026N00049373WA0000000256
B1728403738014N00049367WA0000000262
B1728463737999N00049418WA0000000263
B1728523738020N00049433WA0000000263
B1728583738025N00049417WA0000000270
B1729043738034N00049404WA0000000274
B1729103738046N00049395WA0000000280
B1729163738025N00049403WA0000000280
B1729223738024N00049454WA0000000278
B1729283738045N00049462WA0000000281
B1729343738052N00049452WA0000000284
B1729403738054N00049434WA0000000289
B1729463738055N00049420WA0000000291
B1729523738057N00049403WA0000000298
B1729583738060N00049386WA0000000308
B1730043738059N00049375WA0000000304
B1730103738052N00049360WA0000000299
B1730163738043N00049346WA0000000289
B1730223738038N00049330WA0000000284
B1730283738037N00049313WA0000000277
B1730343738036N00049298WA0000000272
B1730403738036N00049284WA0000000264
B1730463738034N00049270WA0000000255
B1730523738032N00049247WA0000000238
B1730583738030N00049220WA0000000230
B1731043738027N00049192WA0000000219
B1731103738024N00049169WA0000000212
B1731163738026N00049158WA0000000202
B1731223738024N00049145WA0000000195
B1731283738018N00049131WA0000000188
B1731343737996N00049138WA0000000178
B1731403737984N00049195WA0000000169
B1731463738002N00049239WA0000000161
B1731523738028N00049248WA0000000150
B1731583738056N00049272WA0000000151
B1732043738081N00049314WA0000000147
B1732103738093N00049365WA0000000143
B1732163738065N00049371WA0000000135
B1732223738070N00049363WA0000000122
B1732283738095N00049391WA0000000115
B1732343738120N00049397WA0000000114
B1732403738136N00049393WA0000000107
B1732463738115N00049388WA0000000102
B1732523738101N00049372WA0000000097
B1732583738100N00049351WA0000000091
B1733043738106N00049339WA0000000091
B1733103738109N00049327WA0000000083
LXCG     VERSION:5.7
GAA23DE95C5BE68708B7CCA1DA8004BC9ABCDF4BED222D11FFAC5E25B1479814FD4932
GB76BBCCE85AF2EFC4DDE0819629FF164EC7C781BCFDA5DA575FB756E377A7EBFFA4
G148611F7139AAB91E2F89F75D493ACD51E7EDFA6C72EE50AB9B941C9CA20D83A60A
G1303C5E93A23A819D134EC296931623385EAEF1999E5BFB0872A06C139110